Řízení letového provozu České republiky
Letiste: LKCV Aktualizace: 15.10.2019 23:00:32  UTC
 METAR LKCV 15.10. 23:00 ...
METAR LKCV 152300Z 23003KT 190V270 CAVOK 09/08 Q1008 NOSIG RMK BLU BLU=
 TAF LKCV 15.10. 17:00 ...
TAF LKCV 151700Z 1518/1618 14006KT CAVOK      PROB30 TEMPO 1600/1606 4000 BR      BECMG 1604/1606 BKN020      TEMPO 1606/1615 26010KT 7000 RA BKN015 OVC025      TEMPO 1610/1618 27012G24KT=